Marathon, FL (33050)

4:26 PM EST on December 08, 2016 (GMT -0500)
Overseas Highway | | Change Station

Elev 29 ft 24.73 °N, 81.02 °W | Updated 1 minute ago

Rain
Rain
80.6 °F
Feels Like 86 °F
N
3.1
Wind Variable Wind from NE
Gusts 5.0 mph

Today
High -- | Low -- °F
--% Chance of Precip.
Yesterday
High -- | Low -- °F
Precip. -- in
Pressure 30.04 in
Visibility 9.0 miles
Clouds Few 800 ft
Scattered Clouds 14000 ft
Scattered Clouds 20000 ft
Heat Index 86 °F
Dew Point 76 °F
Humidity 85%
Rainfall 0.01 in
Snow Depth Not available.
6:56 AM 5:35 PM
Waxing Gibbous, 67% visible
METAR KNQX 082053Z 36009KT 9SM FEW008 SCT140 SCT200 26/23 A3004 RMK AO2 SLP171 T02560228 55009 $
Pressure 30.04 in
Visibility 9.0 miles
Clouds Few 800 ft
Scattered Clouds 14000 ft
Scattered Clouds 20000 ft
Heat Index 86 °F
Dew Point 76 °F
Humidity 85%
Rainfall 0.01 in
Snow Depth Not available.
6:56 AM 5:35 PM
Waxing Gibbous, 67% visible
METAR KNQX 082053Z 36009KT 9SM FEW008 SCT140 SCT200 26/23 A3004 RMK AO2 SLP171 T02560228 55009 $

10-Day Weather Forecast

Almanac

Astronomy

Dec. 08, 2016 Rise Set
Actual Time
Civil Twilight
Nautical Twilight
Astronomical Twilight
Moon
Length of Visible Light
Length of Day
Tomorrow will be .
, % of the Moon is Illuminated

Today's Extremes

State Highs State Lows

Community

WunderPhotos

Upload Photos

1,956,277 photos uploaded!

WunderBlog® & News

Nearby

Air Quality

  Air Quality AQ Index Pollutant
Not available.

Snow Depth

Station Depth Elevation

Earthquake Activity

City Distance Mag. Time & Date
Minimum magnitude displayed is 2.5.

Coastal Water Temperatures

Place Temperature

Stations

Nearby Weather Stations

Station Location Temp. Windchill Dew Point Humidity Wind Precip. Elev Updated Type
                   

Watches & Warnings

There are currently no watches in effect.